createdAt,value
2019-04-11T00:00:58.131Z,7.30
2019-04-11T00:03:31.353Z,7.30
2019-04-11T00:06:05.434Z,7.40
2019-04-11T00:08:38.613Z,7.50
2019-04-11T00:11:13.503Z,7.50
2019-04-11T00:13:47.378Z,7.50
2019-04-11T00:16:21.177Z,7.60
2019-04-11T00:18:54.751Z,7.70
2019-04-11T00:21:28.749Z,7.80
2019-04-11T00:24:02.753Z,7.80
2019-04-11T00:26:36.258Z,7.80
2019-04-11T00:29:10.141Z,7.80
2019-04-11T00:31:43.205Z,7.90
2019-04-11T00:34:30.966Z,7.90
2019-04-11T00:37:08.766Z,7.90
2019-04-11T00:39:50.724Z,7.90
2019-04-11T00:42:34.621Z,7.90
2019-04-11T00:45:12.032Z,8.00
2019-04-11T00:47:51.949Z,8.00
2019-04-11T00:50:30.183Z,8.00
2019-04-11T00:53:13.856Z,8.00
2019-04-11T00:56:00.361Z,8.00
2019-04-11T00:58:38.050Z,8.10
2019-04-11T01:01:28.196Z,8.10
2019-04-11T01:04:01.339Z,8.10
2019-04-11T01:06:34.385Z,8.20
2019-04-11T01:09:09.999Z,8.20
2019-04-11T01:11:43.713Z,8.10
2019-04-11T01:14:17.406Z,8.10
2019-04-11T01:16:53.966Z,8.00
2019-04-11T01:19:27.271Z,8.00
2019-04-11T01:22:01.260Z,8.00
2019-04-11T01:24:34.258Z,7.90
2019-04-11T01:27:07.774Z,7.90
2019-04-11T01:29:42.056Z,8.00
2019-04-11T01:32:15.946Z,8.00
2019-04-11T01:34:49.196Z,7.90
2019-04-11T01:37:22.225Z,7.90
2019-04-11T01:39:59.371Z,7.80
2019-04-11T01:42:33.435Z,7.70
2019-04-11T01:45:07.465Z,7.70
2019-04-11T01:48:03.563Z,7.60
2019-04-11T01:50:37.032Z,7.60
2019-04-11T01:53:10.973Z,7.50
2019-04-11T01:55:45.014Z,7.50
2019-04-11T01:58:18.414Z,7.50
2019-04-11T02:01:09.796Z,7.50
2019-04-11T02:03:55.268Z,7.60
2019-04-11T02:06:28.437Z,7.70
2019-04-11T02:09:01.978Z,7.70
2019-04-11T02:11:34.987Z,7.60
2019-04-11T02:14:15.589Z,7.60
2019-04-11T02:16:43.296Z,7.60
2019-04-11T02:19:16.904Z,7.70
2019-04-11T02:21:51.736Z,7.70
2019-04-11T02:24:39.714Z,7.70
2019-04-11T02:27:24.819Z,7.80
2019-04-11T02:29:59.144Z,7.80
2019-04-11T02:32:34.162Z,7.70
2019-04-11T02:35:08.226Z,7.60
2019-04-11T02:37:42.290Z,7.50
2019-04-11T02:40:17.703Z,7.50
2019-04-11T02:42:51.996Z,7.60
2019-04-11T02:45:42.018Z,7.50
2019-04-11T02:48:01.038Z,7.50
2019-04-11T02:50:37.123Z,7.50
2019-04-11T02:53:12.430Z,7.50
2019-04-11T02:55:47.448Z,7.50
2019-04-11T02:58:23.097Z,7.50
2019-04-11T03:00:59.398Z,7.50
2019-04-11T03:03:34.135Z,7.60
2019-04-11T03:06:11.743Z,7.60
2019-04-11T03:08:50.899Z,7.60
2019-04-11T03:11:26.075Z,7.60
2019-04-11T03:14:03.213Z,7.60
2019-04-11T03:16:51.721Z,7.60
2019-04-11T03:19:33.021Z,7.60
2019-04-11T03:21:52.096Z,7.60
2019-04-11T03:24:27.091Z,7.70
2019-04-11T03:27:04.426Z,7.70
2019-04-11T03:29:36.248Z,7.70
2019-04-11T03:33:17.769Z,7.70
2019-04-11T03:36:07.794Z,7.70
2019-04-11T03:37:58.544Z,7.70
2019-04-11T03:40:30.432Z,7.70
2019-04-11T03:43:04.436Z,7.80
2019-04-11T03:45:48.009Z,7.80
2019-04-11T03:48:12.418Z,7.80
2019-04-11T03:50:37.112Z,7.80
2019-04-11T03:53:11.759Z,7.90
2019-04-11T03:55:45.702Z,7.90
2019-04-11T03:58:21.802Z,8.00
2019-04-11T04:01:03.267Z,8.00
2019-04-11T04:03:34.239Z,8.10
2019-04-11T04:06:08.908Z,8.20
2019-04-11T04:08:44.268Z,8.30
2019-04-11T04:11:27.437Z,8.30
2019-04-11T04:14:24.303Z,8.30
2019-04-11T04:17:33.009Z,8.40
2019-04-11T04:20:19.464Z,8.40
2019-04-11T04:23:05.271Z,8.40
2019-04-11T04:25:42.608Z,8.40
2019-04-11T04:28:15.873Z,8.40
2019-04-11T04:30:49.486Z,8.40
2019-04-11T04:33:23.154Z,8.50
2019-04-11T04:35:57.920Z,8.50
2019-04-11T04:38:33.754Z,8.50
2019-04-11T04:41:20.073Z,8.50
2019-04-11T04:43:44.968Z,8.50
2019-04-11T04:46:38.233Z,8.50
2019-04-11T04:48:53.950Z,8.50
2019-04-11T04:51:28.711Z,8.50
2019-04-11T04:54:02.038Z,8.50
2019-04-11T04:56:39.075Z,8.60
2019-04-11T04:59:12.429Z,8.70
2019-04-11T05:01:48.198Z,8.80
2019-04-11T05:04:23.235Z,8.80
2019-04-11T05:06:56.504Z,8.90
2019-04-11T05:09:29.874Z,8.90
2019-04-11T05:12:03.449Z,8.90
2019-04-11T05:14:37.274Z,8.90
2019-04-11T05:17:12.790Z,9.00
2019-04-11T05:19:46.583Z,9.10
2019-04-11T05:22:19.395Z,9.20
2019-04-11T05:24:52.308Z,9.30
2019-04-11T05:27:25.474Z,9.30
2019-04-11T05:29:58.682Z,9.30
2019-04-11T05:32:31.521Z,9.30
2019-04-11T05:35:04.839Z,9.30
2019-04-11T05:37:37.988Z,9.20
2019-04-11T05:40:11.291Z,9.20
2019-04-11T05:42:45.163Z,9.20
2019-04-11T05:45:21.111Z,9.30
2019-04-11T05:47:55.094Z,9.20
2019-04-11T05:50:30.311Z,9.20
2019-04-11T05:53:05.623Z,9.10
2019-04-11T05:55:45.430Z,9.10
2019-04-11T05:58:17.823Z,9.10
2019-04-11T06:01:10.058Z,9.10
2019-04-11T06:03:45.357Z,9.10
2019-04-11T06:06:40.199Z,9.10
2019-04-11T06:09:18.953Z,9.10
2019-04-11T06:12:12.246Z,9.20
2019-04-11T06:14:51.964Z,9.20
2019-04-11T06:17:25.987Z,9.30
2019-04-11T06:20:45.895Z,9.30
2019-04-11T06:23:35.155Z,9.40
2019-04-11T06:26:42.892Z,9.40
2019-04-11T06:29:26.444Z,9.40
2019-04-11T06:32:21.575Z,9.50
2019-04-11T06:34:59.777Z,9.50
2019-04-11T06:37:50.442Z,9.40
2019-04-11T06:40:32.743Z,9.50
2019-04-11T06:43:13.930Z,9.50
2019-04-11T06:46:25.065Z,9.50
2019-04-11T06:49:29.073Z,9.60
2019-04-11T06:52:04.572Z,9.60
2019-04-11T06:54:56.116Z,9.70
2019-04-11T06:57:30.180Z,9.70
2019-04-11T07:00:05.104Z,9.70
2019-04-11T07:02:41.623Z,9.70
2019-04-11T07:05:16.149Z,9.70
2019-04-11T07:07:51.756Z,9.80
2019-04-11T07:10:30.671Z,9.80
2019-04-11T07:13:14.761Z,9.90
2019-04-11T07:16:04.618Z,10.00
2019-04-11T07:18:57.007Z,10.10
2019-04-11T07:21:35.420Z,10.00
2019-04-11T07:24:32.328Z,10.00
2019-04-11T07:27:12.039Z,10.00
2019-04-11T07:30:11.421Z,10.00
2019-04-11T07:32:45.098Z,10.00
2019-04-11T07:35:36.061Z,10.00
2019-04-11T07:38:09.860Z,10.10
2019-04-11T07:41:10.801Z,10.20
2019-04-11T07:43:44.319Z,10.30
2019-04-11T07:46:25.728Z,10.40
2019-04-11T07:49:05.796Z,10.50
2019-04-11T07:51:46.120Z,10.50
2019-04-11T07:54:22.328Z,10.50
2019-04-11T07:57:10.436Z,10.50
2019-04-11T08:00:03.818Z,10.60
2019-04-11T08:02:59.668Z,10.60
2019-04-11T08:05:58.746Z,10.60
2019-04-11T08:08:51.434Z,10.60
2019-04-11T08:11:44.248Z,10.70
2019-04-11T08:14:46.345Z,10.70
2019-04-11T08:17:37.075Z,10.80
2019-04-11T08:20:23.487Z,10.80
2019-04-11T08:23:03.571Z,10.90
2019-04-11T08:25:55.727Z,10.80
2019-04-11T08:28:29.238Z,10.80
2019-04-11T08:31:21.597Z,10.90
2019-04-11T08:33:57.225Z,10.90
2019-04-11T08:36:48.954Z,10.90
2019-04-11T08:39:27.677Z,11.00
2019-04-11T08:42:37.293Z,11.10
2019-04-11T08:45:12.390Z,11.10
2019-04-11T08:47:53.900Z,11.00
2019-04-11T08:50:26.767Z,11.10
2019-04-11T08:53:18.611Z,11.10
2019-04-11T08:56:00.217Z,11.10
2019-04-11T08:58:40.616Z,11.10
2019-04-11T09:01:15.906Z,11.10
2019-04-11T09:04:12.643Z,11.10
2019-04-11T09:06:45.731Z,11.20
2019-04-11T09:09:43.829Z,11.20
2019-04-11T09:12:18.433Z,11.20
2019-04-11T09:15:16.909Z,11.20
2019-04-11T09:18:01.673Z,11.10
2019-04-11T09:20:56.017Z,11.10
2019-04-11T09:23:30.024Z,11.20
2019-04-11T09:26:20.456Z,11.20
2019-04-11T09:28:55.817Z,11.20
2019-04-11T09:31:48.963Z,11.20
2019-04-11T09:34:46.031Z,11.10
2019-04-11T09:37:31.599Z,11.00
2019-04-11T09:40:24.463Z,10.90
2019-04-11T09:43:24.170Z,10.90
2019-04-11T09:46:10.333Z,10.90
2019-04-11T09:49:08.685Z,11.00
2019-04-11T09:52:02.559Z,11.00
2019-04-11T09:54:54.687Z,11.10
2019-04-11T09:57:46.582Z,11.20
2019-04-11T10:00:38.771Z,11.30
2019-04-11T10:03:17.932Z,11.30
2019-04-11T10:06:09.860Z,11.40
2019-04-11T10:08:51.234Z,11.50
2019-04-11T10:11:56.778Z,11.50
2019-04-11T10:14:31.543Z,11.60
2019-04-11T10:17:33.910Z,11.60
2019-04-11T10:20:09.149Z,11.60
2019-04-11T10:23:04.879Z,11.50
2019-04-11T10:25:43.386Z,11.40
2019-04-11T10:28:35.591Z,11.30
2019-04-11T10:31:17.987Z,11.30
2019-04-11T10:34:17.530Z,11.20
2019-04-11T10:37:06.059Z,11.20
2019-04-11T10:39:58.006Z,11.20
2019-04-11T10:42:32.717Z,11.30
2019-04-11T10:45:30.958Z,11.30
2019-04-11T10:48:08.225Z,11.20
2019-04-11T10:50:58.410Z,11.20
2019-04-11T10:53:33.220Z,11.30
2019-04-11T10:56:31.263Z,11.30
2019-04-11T10:59:05.163Z,11.30
2019-04-11T11:02:04.515Z,11.20
2019-04-11T11:04:41.031Z,11.30
2019-04-11T11:07:20.489Z,11.20
2019-04-11T11:10:03.903Z,11.20
2019-04-11T11:12:59.946Z,11.40
2019-04-11T11:15:39.887Z,11.60
2019-04-11T11:18:49.174Z,11.80
2019-04-11T11:21:11.340Z,12.00
2019-04-11T11:24:06.373Z,12.10
2019-04-11T11:26:39.040Z,12.20
2019-04-11T11:29:47.535Z,12.30
2019-04-11T11:32:27.338Z,12.30
2019-04-11T11:35:34.928Z,12.30
2019-04-11T11:38:17.673Z,12.40
2019-04-11T11:41:28.137Z,12.50
2019-04-11T11:44:01.449Z,12.60
2019-04-11T11:46:59.833Z,12.70
2019-04-11T11:49:44.825Z,12.80
2019-04-11T11:52:24.788Z,12.90
2019-04-11T11:54:58.149Z,13.10
2019-04-11T11:57:44.757Z,13.30
2019-04-11T12:00:25.057Z,13.50
2019-04-11T12:03:17.081Z,13.60
2019-04-11T12:05:55.234Z,13.70
2019-04-11T12:08:48.175Z,13.70
2019-04-11T12:11:24.055Z,13.70
2019-04-11T12:14:15.863Z,13.80
2019-04-11T12:17:03.316Z,13.80
2019-04-11T12:19:47.945Z,13.90
2019-04-11T12:22:15.988Z,14.10
2019-04-11T12:24:53.773Z,14.30
2019-04-11T12:27:58.515Z,14.60
2019-04-11T12:30:44.226Z,14.60
2019-04-11T12:33:35.948Z,14.60
2019-04-11T12:36:14.908Z,14.70
2019-04-11T12:39:25.431Z,14.70
2019-04-11T12:42:14.193Z,14.60
2019-04-11T12:45:06.585Z,14.50
2019-04-11T12:47:44.084Z,14.50
2019-04-11T12:50:35.012Z,14.60
2019-04-11T12:53:16.071Z,14.70
2019-04-11T12:56:07.196Z,14.80
2019-04-11T12:58:59.733Z,14.90
2019-04-11T13:01:50.921Z,15.00
2019-04-11T13:04:31.947Z,14.90
2019-04-11T13:07:24.273Z,14.90
2019-04-11T13:10:07.805Z,14.80
2019-04-11T13:13:03.058Z,14.70
2019-04-11T13:15:49.070Z,14.60
2019-04-11T13:18:59.460Z,14.60
2019-04-11T13:21:44.239Z,14.60
2019-04-11T13:24:35.176Z,14.50
2019-04-11T13:27:15.007Z,14.50
2019-04-11T13:30:07.487Z,14.50
2019-04-11T13:32:47.105Z,14.60
2019-04-11T13:35:49.604Z,15.00
2019-04-11T13:38:39.939Z,15.20
2019-04-11T13:41:47.037Z,15.30
2019-04-11T13:44:34.194Z,15.20
2019-04-11T13:47:25.386Z,15.10
2019-04-11T13:50:03.956Z,15.00
2019-04-11T13:52:55.245Z,14.80
2019-04-11T13:55:34.048Z,14.80
2019-04-11T13:58:25.595Z,14.70
2019-04-11T14:01:00.705Z,14.70
2019-04-11T14:03:52.750Z,14.60
2019-04-11T14:06:27.434Z,14.60
2019-04-11T14:09:26.076Z,14.70
2019-04-11T14:12:04.877Z,14.80
2019-04-11T14:15:00.950Z,14.90
2019-04-11T14:17:43.331Z,14.80
2019-04-11T14:20:30.234Z,14.80
2019-04-11T14:23:29.017Z,14.80
2019-04-11T14:26:26.886Z,14.60
2019-04-11T14:29:31.488Z,14.50
2019-04-11T14:32:29.611Z,14.50
2019-04-11T14:35:27.547Z,14.50
2019-04-11T14:38:15.210Z,14.50
2019-04-11T14:41:11.867Z,14.50
2019-04-11T14:43:49.323Z,14.40
2019-04-11T14:46:39.804Z,14.30
2019-04-11T14:49:17.398Z,14.30
2019-04-11T14:52:10.320Z,14.20
2019-04-11T14:54:48.940Z,14.20
2019-04-11T14:57:54.762Z,14.10
2019-04-11T15:00:38.632Z,14.00
2019-04-11T15:03:29.318Z,14.10
2019-04-11T15:06:08.019Z,14.40
2019-04-11T15:09:05.973Z,14.60
2019-04-11T15:11:57.449Z,14.70
2019-04-11T15:14:52.549Z,14.70
2019-04-11T15:17:36.016Z,14.80
2019-04-11T15:20:27.394Z,14.90
2019-04-11T15:23:13.715Z,14.90
2019-04-11T15:26:09.095Z,14.70
2019-04-11T15:28:52.023Z,14.60
2019-04-11T15:31:42.817Z,14.50
2019-04-11T15:34:38.027Z,14.50
2019-04-11T15:37:36.061Z,14.60
2019-04-11T15:40:12.659Z,14.60
2019-04-11T15:43:01.735Z,14.70
2019-04-11T15:45:46.500Z,14.90
2019-04-11T15:48:53.541Z,15.00
2019-04-11T15:51:42.513Z,15.10
2019-04-11T15:54:43.602Z,15.10
2019-04-11T15:57:42.886Z,15.10
2019-04-11T16:00:45.241Z,15.20
2019-04-11T16:03:24.782Z,15.10
2019-04-11T16:06:16.151Z,15.10
2019-04-11T16:08:52.013Z,15.00
2019-04-11T16:11:44.204Z,15.00
2019-04-11T16:14:25.969Z,14.90
2019-04-11T16:17:18.146Z,14.90
2019-04-11T16:19:53.544Z,14.90
2019-04-11T16:22:45.711Z,14.80
2019-04-11T16:25:32.770Z,14.70
2019-04-11T16:28:28.268Z,14.70
2019-04-11T16:31:01.741Z,14.50
2019-04-11T16:33:52.766Z,14.40
2019-04-11T16:36:42.137Z,14.40
2019-04-11T16:39:49.968Z,14.30
2019-04-11T16:42:27.913Z,14.10
2019-04-11T16:45:14.531Z,14.00
2019-04-11T16:48:05.176Z,14.00
2019-04-11T16:50:38.619Z,13.80
2019-04-11T16:53:12.259Z,13.60
2019-04-11T16:55:46.568Z,13.50
2019-04-11T16:58:19.823Z,13.40
2019-04-11T17:00:53.340Z,13.30
2019-04-11T17:03:27.064Z,13.10
2019-04-11T17:06:07.553Z,13.00
2019-04-11T17:08:58.954Z,12.80
2019-04-11T17:11:32.236Z,12.70
2019-04-11T17:14:05.467Z,12.60
2019-04-11T17:16:38.863Z,12.40
2019-04-11T17:19:12.485Z,12.30
2019-04-11T17:21:48.462Z,12.20
2019-04-11T17:24:22.174Z,12.10
2019-04-11T17:26:55.704Z,12.00
2019-04-11T17:29:29.391Z,11.90
2019-04-11T17:32:02.952Z,11.70
2019-04-11T17:34:36.551Z,11.60
2019-04-11T17:37:09.881Z,11.50
2019-04-11T17:39:44.230Z,11.40
2019-04-11T17:42:17.779Z,11.20
2019-04-11T17:44:52.004Z,11.10
2019-04-11T17:47:26.958Z,11.00
2019-04-11T17:50:04.154Z,10.90
2019-04-11T17:52:37.270Z,10.80
2019-04-11T17:55:10.672Z,10.80
2019-04-11T17:57:44.131Z,10.70
2019-04-11T18:00:29.875Z,10.60
2019-04-11T18:03:02.265Z,10.60
2019-04-11T18:05:37.804Z,10.60
2019-04-11T18:08:10.963Z,10.50
2019-04-11T18:10:44.686Z,10.50
2019-04-11T18:13:18.298Z,10.50
2019-04-11T18:15:53.455Z,10.50
2019-04-11T18:18:27.135Z,10.50
2019-04-11T18:21:00.579Z,10.50
2019-04-11T18:23:35.963Z,10.50
2019-04-11T18:26:09.600Z,10.60
2019-04-11T18:28:43.337Z,10.60
2019-04-11T18:31:19.005Z,10.70
2019-04-11T18:33:51.705Z,10.70
2019-04-11T18:36:25.882Z,10.70
2019-04-11T18:39:02.076Z,10.80
2019-04-11T18:41:35.843Z,10.80
2019-04-11T18:44:09.333Z,10.80
2019-04-11T18:46:43.521Z,10.80
2019-04-11T18:49:16.808Z,10.80
2019-04-11T18:51:53.037Z,10.80
2019-04-11T18:54:26.363Z,10.80
2019-04-11T18:56:59.842Z,10.80
2019-04-11T18:59:33.962Z,10.90
2019-04-11T19:02:09.876Z,11.00
2019-04-11T19:04:43.357Z,11.00
2019-04-11T19:07:27.370Z,11.00
2019-04-11T19:09:52.181Z,11.10
2019-04-11T19:12:25.889Z,11.10
2019-04-11T19:14:58.957Z,11.20
2019-04-11T19:17:32.634Z,11.20
2019-04-11T19:20:06.351Z,11.20
2019-04-11T19:22:39.641Z,11.10
2019-04-11T19:25:14.797Z,11.10
2019-04-11T19:27:53.314Z,11.00
2019-04-11T19:30:23.957Z,11.00
2019-04-11T19:33:00.276Z,11.00
2019-04-11T19:35:33.447Z,10.90
2019-04-11T19:38:12.040Z,10.80
2019-04-11T19:40:44.163Z,10.70
2019-04-11T19:43:19.150Z,10.70
2019-04-11T19:45:53.030Z,10.60
2019-04-11T19:48:26.111Z,10.50
2019-04-11T19:50:59.627Z,10.40
2019-04-11T19:53:33.543Z,10.30
2019-04-11T19:56:25.326Z,10.30
2019-04-11T19:58:58.586Z,10.20
2019-04-11T20:01:31.770Z,10.00
2019-04-11T20:04:05.096Z,10.00
2019-04-11T20:06:38.586Z,9.90
2019-04-11T20:09:12.055Z,9.90
2019-04-11T20:11:45.059Z,9.80
2019-04-11T20:14:18.328Z,9.80
2019-04-11T20:16:52.118Z,9.70
2019-04-11T20:19:27.463Z,9.70
2019-04-11T20:22:00.314Z,9.70
2019-04-11T20:24:34.188Z,9.70
2019-04-11T20:27:07.544Z,9.70
2019-04-11T20:29:41.307Z,9.70
2019-04-11T20:32:14.389Z,9.70
2019-04-11T20:34:47.478Z,9.70
2019-04-11T20:37:20.729Z,9.70
2019-04-11T20:39:53.737Z,9.70
2019-04-11T20:42:26.980Z,9.70
2019-04-11T20:45:00.191Z,9.70
2019-04-11T20:47:34.062Z,9.60
2019-04-11T20:50:08.057Z,9.60
2019-04-11T20:52:41.640Z,9.60
2019-04-11T20:55:14.718Z,9.60
2019-04-11T20:57:48.226Z,9.60
2019-04-11T21:00:21.557Z,9.60
2019-04-11T21:02:58.064Z,9.70
2019-04-11T21:05:30.948Z,9.70
2019-04-11T21:08:04.605Z,9.70
2019-04-11T21:10:37.618Z,9.70
2019-04-11T21:13:11.708Z,9.70
2019-04-11T21:15:44.980Z,9.70
2019-04-11T21:18:17.871Z,9.70
2019-04-11T21:20:55.056Z,9.80
2019-04-11T21:23:29.413Z,9.80
2019-04-11T21:26:00.695Z,9.80
2019-04-11T21:28:33.609Z,9.80
2019-04-11T21:31:06.656Z,9.80
2019-04-11T21:33:39.967Z,9.80
2019-04-11T21:36:13.033Z,9.90
2019-04-11T21:38:47.917Z,9.90
2019-04-11T21:41:21.848Z,9.90
2019-04-11T21:43:54.862Z,9.80
2019-04-11T21:46:27.930Z,9.80
2019-04-11T21:49:01.003Z,9.80
2019-04-11T21:51:34.159Z,9.80
2019-04-11T21:54:07.141Z,9.80
2019-04-11T21:56:40.500Z,9.70
2019-04-11T21:59:13.445Z,9.70
2019-04-11T22:01:47.045Z,9.60
2019-04-11T22:04:19.920Z,9.60
2019-04-11T22:06:53.260Z,9.60
2019-04-11T22:09:26.542Z,9.50
2019-04-11T22:11:59.778Z,9.50
2019-04-11T22:14:32.589Z,9.40
2019-04-11T22:17:05.769Z,9.30
2019-04-11T22:19:38.627Z,9.20
2019-04-11T22:22:11.960Z,9.10
2019-04-11T22:24:44.985Z,9.00
2019-04-11T22:27:22.029Z,9.00
2019-04-11T22:29:55.095Z,8.90
2019-04-11T22:32:27.776Z,8.90
2019-04-11T22:35:01.404Z,8.90
2019-04-11T22:37:34.317Z,8.90
2019-04-11T22:40:07.705Z,8.90
2019-04-11T22:42:40.446Z,8.80
2019-04-11T22:45:13.461Z,8.80
2019-04-11T22:47:46.623Z,8.80
2019-04-11T22:50:19.851Z,8.80
2019-04-11T22:52:52.757Z,8.70
2019-04-11T22:55:25.997Z,8.60
2019-04-11T22:57:59.087Z,8.50
2019-04-11T23:00:31.944Z,8.40
2019-04-11T23:03:30.009Z,8.30
2019-04-11T23:06:03.067Z,8.20
2019-04-11T23:08:36.509Z,8.20
2019-04-11T23:11:10.936Z,8.20
2019-04-11T23:13:45.572Z,8.10
2019-04-11T23:16:19.278Z,8.10
2019-04-11T23:18:52.447Z,8.00
2019-04-11T23:21:25.404Z,7.80
2019-04-11T23:23:59.326Z,7.70
2019-04-11T23:26:34.754Z,7.70
2019-04-11T23:29:07.679Z,7.60
2019-04-11T23:31:40.455Z,7.50
2019-04-11T23:34:13.246Z,7.50
2019-04-11T23:36:46.265Z,7.40
2019-04-11T23:39:22.688Z,7.40
2019-04-11T23:41:53.667Z,7.40
2019-04-11T23:44:26.713Z,7.30
2019-04-11T23:46:59.937Z,7.20
2019-04-11T23:49:32.750Z,7.10
2019-04-11T23:52:05.379Z,7.10
2019-04-11T23:54:38.127Z,7.10
2019-04-11T23:57:10.991Z,7.00
2019-04-11T23:59:43.874Z,7.00
